createdAt,value
2023-03-10T00:01:27.110Z,6.80
2023-03-10T00:03:57.220Z,6.70
2023-03-10T00:06:28.015Z,6.70
2023-03-10T00:08:56.482Z,6.70
2023-03-10T00:11:23.831Z,6.70
2023-03-10T00:16:26.997Z,7.00
2023-03-10T00:18:54.875Z,7.10
2023-03-10T00:21:31.197Z,7.00
2023-03-10T00:23:59.307Z,7.00
2023-03-10T00:26:29.327Z,6.90
2023-03-10T00:31:27.801Z,6.80
2023-03-10T00:33:57.163Z,6.80
2023-03-10T00:36:30.596Z,6.80
2023-03-10T00:39:04.807Z,6.80
2023-03-10T00:41:38.907Z,7.00
2023-03-10T00:44:09.365Z,7.10
2023-03-10T00:46:38.636Z,7.20
2023-03-10T00:49:14.446Z,7.30
2023-03-10T00:51:41.457Z,7.30
2023-03-10T00:56:36.925Z,7.30
2023-03-10T00:59:04.382Z,7.30
2023-03-10T01:01:37.752Z,7.40
2023-03-10T01:04:16.543Z,7.50
2023-03-10T01:06:45.083Z,7.80
2023-03-10T01:09:12.090Z,7.90
2023-03-10T01:11:39.857Z,8.10
2023-03-10T01:14:12.981Z,8.10
2023-03-10T01:16:39.998Z,8.10
2023-03-10T01:21:38.580Z,8.00
2023-03-10T01:24:06.993Z,8.00
2023-03-10T01:26:34.119Z,8.00
2023-03-10T01:31:29.230Z,8.00
2023-03-10T01:36:27.306Z,7.90
2023-03-10T01:38:56.436Z,7.90
2023-03-10T01:43:56.283Z,7.70
2023-03-10T01:46:54.142Z,7.60
2023-03-10T01:49:43.982Z,7.60
2023-03-10T01:52:24.912Z,7.50
2023-03-10T01:55:10.048Z,7.50
2023-03-10T01:57:50.225Z,7.40
2023-03-10T02:00:19.166Z,7.40
2023-03-10T02:03:17.871Z,7.40
2023-03-10T02:06:07.770Z,7.40
2023-03-10T02:08:44.428Z,7.40
2023-03-10T02:11:15.282Z,7.40
2023-03-10T02:13:42.994Z,7.30
2023-03-10T02:16:10.881Z,7.20
2023-03-10T02:18:38.032Z,7.20
2023-03-10T02:21:54.332Z,7.20
2023-03-10T02:24:52.981Z,7.20
2023-03-10T02:27:31.414Z,7.20
2023-03-10T02:30:49.947Z,7.10
2023-03-10T02:33:32.638Z,7.00
2023-03-10T02:36:21.013Z,6.90
2023-03-10T02:38:49.074Z,6.80
2023-03-10T02:41:32.407Z,6.70
2023-03-10T02:44:13.961Z,6.70
2023-03-10T02:46:41.213Z,6.70
2023-03-10T02:49:12.466Z,6.90
2023-03-10T02:51:47.090Z,6.90
2023-03-10T02:54:17.146Z,7.00
2023-03-10T02:56:45.360Z,7.10
2023-03-10T02:59:13.268Z,7.00
2023-03-10T03:01:45.406Z,7.00
2023-03-10T03:04:12.588Z,6.90
2023-03-10T03:09:08.442Z,6.60
2023-03-10T03:14:05.714Z,6.50
2023-03-10T03:16:32.984Z,6.50
2023-03-10T03:21:32.129Z,6.50
2023-03-10T03:26:27.664Z,6.40
2023-03-10T03:29:03.218Z,6.40
2023-03-10T03:34:07.903Z,6.30
2023-03-10T03:36:35.438Z,6.30
2023-03-10T03:41:34.743Z,6.30
2023-03-10T03:44:02.273Z,6.40
2023-03-10T03:53:54.408Z,6.80
2023-03-10T03:56:21.968Z,6.90
2023-03-10T04:01:16.485Z,6.90
2023-03-10T04:03:48.464Z,7.10
2023-03-10T04:06:17.722Z,7.10
2023-03-10T04:16:12.504Z,7.10
2023-03-10T04:18:40.837Z,7.10
2023-03-10T04:23:41.950Z,7.20
2023-03-10T04:26:11.914Z,7.20
2023-03-10T04:31:18.229Z,7.20
2023-03-10T04:33:47.878Z,7.10
2023-03-10T04:36:16.242Z,7.10
2023-03-10T04:38:45.922Z,7.20
2023-03-10T04:41:13.598Z,7.20
2023-03-10T04:46:15.514Z,7.30
2023-03-10T04:48:42.910Z,7.30
2023-03-10T04:51:13.185Z,7.30
2023-03-10T04:53:46.862Z,7.30
2023-03-10T05:01:14.611Z,7.30
2023-03-10T05:06:19.671Z,7.30
2023-03-10T05:13:51.457Z,7.30
2023-03-10T05:16:21.872Z,7.30
2023-03-10T05:18:50.331Z,7.40
2023-03-10T05:21:22.186Z,7.40
2023-03-10T05:23:50.476Z,7.40
2023-03-10T05:28:46.828Z,7.50
2023-03-10T05:31:17.741Z,7.50
2023-03-10T05:33:48.296Z,7.50
2023-03-10T05:38:45.307Z,7.50
2023-03-10T05:41:14.687Z,7.50
2023-03-10T05:46:13.454Z,7.50
2023-03-10T05:51:15.356Z,7.50
2023-03-10T05:53:43.035Z,7.50
2023-03-10T05:56:19.083Z,7.50
2023-03-10T06:03:47.973Z,7.60
2023-03-10T06:08:43.503Z,7.60
2023-03-10T06:13:38.114Z,7.60
2023-03-10T06:16:07.312Z,7.70
2023-03-10T06:18:35.421Z,7.70
2023-03-10T06:21:12.887Z,7.70
2023-03-10T06:23:41.138Z,7.70
2023-03-10T06:26:14.776Z,7.70
2023-03-10T06:28:45.816Z,7.80
2023-03-10T06:31:22.670Z,7.80
2023-03-10T06:36:19.267Z,7.80
2023-03-10T06:43:42.546Z,8.00
2023-03-10T06:46:12.882Z,8.00
2023-03-10T06:48:42.614Z,8.10
2023-03-10T06:51:20.226Z,8.10
2023-03-10T06:53:49.078Z,8.10
2023-03-10T06:56:20.876Z,8.10
2023-03-10T06:58:48.983Z,8.20
2023-03-10T07:01:42.137Z,8.20
2023-03-10T07:06:38.850Z,8.30
2023-03-10T07:11:33.863Z,8.40
2023-03-10T07:28:47.339Z,8.80
2023-03-10T07:31:15.831Z,8.80
2023-03-10T07:36:15.994Z,9.00
2023-03-10T07:41:19.046Z,9.00
2023-03-10T07:46:15.673Z,9.00
2023-03-10T07:51:12.395Z,9.00
2023-03-10T07:53:39.592Z,9.00
2023-03-10T07:56:09.707Z,9.10
2023-03-10T08:01:06.813Z,9.20
2023-03-10T08:06:02.448Z,9.40
2023-03-10T08:11:10.453Z,9.50
2023-03-10T08:13:39.117Z,9.70
2023-03-10T08:16:07.915Z,9.80
2023-03-10T08:21:07.189Z,9.70
2023-03-10T08:23:36.835Z,9.70
2023-03-10T08:26:14.825Z,9.60
2023-03-10T08:31:17.033Z,9.70
2023-03-10T08:33:45.261Z,9.70
2023-03-10T08:36:18.601Z,9.70
2023-03-10T08:38:46.797Z,9.80
2023-03-10T08:41:21.762Z,9.90
2023-03-10T08:43:50.677Z,10.10
2023-03-10T08:46:20.812Z,10.10
2023-03-10T08:53:47.973Z,10.10
2023-03-10T08:58:45.299Z,10.10
2023-03-10T09:06:23.664Z,9.90
2023-03-10T09:11:25.648Z,10.00
2023-03-10T09:13:53.107Z,10.10
2023-03-10T09:16:21.529Z,10.10
2023-03-10T09:18:48.832Z,10.20
2023-03-10T09:21:19.089Z,10.20
2023-03-10T09:23:49.900Z,10.40
2023-03-10T09:31:21.504Z,10.50
2023-03-10T09:38:44.940Z,10.80
2023-03-10T09:41:45.003Z,10.90
2023-03-10T09:44:42.552Z,11.00
2023-03-10T09:47:55.369Z,11.10
2023-03-10T09:50:48.129Z,11.20
2023-03-10T09:54:12.016Z,11.10
2023-03-10T09:56:39.419Z,11.30
2023-03-10T09:59:33.906Z,11.30
2023-03-10T10:02:15.698Z,11.20
2023-03-10T10:04:43.941Z,11.10
2023-03-10T10:07:25.456Z,11.00
2023-03-10T10:10:09.471Z,11.20
2023-03-10T10:15:18.562Z,11.10
2023-03-10T10:18:25.796Z,11.10
2023-03-10T10:21:00.655Z,11.20
2023-03-10T10:23:40.723Z,11.10
2023-03-10T10:26:18.888Z,11.00
2023-03-10T10:29:04.196Z,11.00
2023-03-10T10:31:35.553Z,11.00
2023-03-10T10:34:10.041Z,11.20
2023-03-10T10:36:51.898Z,11.30
2023-03-10T10:39:32.467Z,11.40
2023-03-10T10:42:27.253Z,11.30
2023-03-10T10:45:14.533Z,11.10
2023-03-10T10:47:51.226Z,9.00
2023-03-10T10:50:35.613Z,7.20
2023-03-10T10:53:21.533Z,6.10
2023-03-10T10:56:05.611Z,5.90
2023-03-10T11:01:22.492Z,5.90
2023-03-10T11:09:10.414Z,6.10
2023-03-10T11:12:25.256Z,6.20
2023-03-10T11:15:11.399Z,6.10
2023-03-10T11:18:04.159Z,6.20
2023-03-10T11:21:13.639Z,6.50
2023-03-10T11:30:05.987Z,9.30
2023-03-10T11:33:05.789Z,9.30
2023-03-10T11:36:10.951Z,9.00
2023-03-10T11:38:44.197Z,8.90
2023-03-10T11:41:22.855Z,9.10
2023-03-10T11:44:10.914Z,9.70
2023-03-10T11:46:57.697Z,10.60
2023-03-10T11:49:40.106Z,11.70
2023-03-10T11:52:15.808Z,12.10
2023-03-10T11:54:51.135Z,12.20
2023-03-10T11:57:24.711Z,11.60
2023-03-10T12:00:01.462Z,11.30
2023-03-10T12:05:22.759Z,10.50
2023-03-10T12:07:55.511Z,10.40
2023-03-10T12:12:53.870Z,10.10
2023-03-10T12:18:08.636Z,9.60
2023-03-10T12:20:36.733Z,9.40
2023-03-10T12:23:09.736Z,9.10
2023-03-10T12:25:38.016Z,8.90
2023-03-10T12:28:17.271Z,8.70
2023-03-10T12:31:01.271Z,8.50
2023-03-10T12:33:31.466Z,8.10
2023-03-10T12:36:32.540Z,7.90
2023-03-10T12:42:01.742Z,7.60
2023-03-10T12:44:52.337Z,7.60
2023-03-10T12:48:10.930Z,7.80
2023-03-10T12:50:58.864Z,8.70
2023-03-10T12:53:51.362Z,8.70
2023-03-10T12:56:50.805Z,8.70
2023-03-10T12:59:35.720Z,8.70
2023-03-10T13:02:43.697Z,8.70
2023-03-10T13:05:31.722Z,8.80
2023-03-10T13:08:12.060Z,8.90
2023-03-10T13:13:17.271Z,9.30
2023-03-10T13:15:44.364Z,9.00
2023-03-10T13:18:22.386Z,8.90
2023-03-10T13:23:35.807Z,9.20
2023-03-10T13:26:15.283Z,9.60
2023-03-10T13:29:01.184Z,10.00
2023-03-10T13:31:34.241Z,9.80
2023-03-10T13:34:20.705Z,9.90
2023-03-10T13:36:48.512Z,9.80
2023-03-10T13:41:56.738Z,10.50
2023-03-10T13:44:41.448Z,10.80
2023-03-10T13:47:27.464Z,10.40
2023-03-10T13:49:59.929Z,9.90
2023-03-10T13:52:31.286Z,9.80
2023-03-10T13:55:17.322Z,9.90
2023-03-10T13:57:48.076Z,10.50
2023-03-10T14:00:20.444Z,10.60
2023-03-10T14:02:51.194Z,10.60
2023-03-10T14:05:49.099Z,10.30
2023-03-10T14:08:30.797Z,10.00
2023-03-10T14:11:37.885Z,9.90
2023-03-10T14:16:49.049Z,9.70
2023-03-10T14:19:42.808Z,9.80
2023-03-10T14:22:36.335Z,9.90
2023-03-10T14:25:10.582Z,9.80
2023-03-10T14:27:42.217Z,9.70
2023-03-10T14:30:32.566Z,9.70
2023-03-10T14:33:01.499Z,9.80
2023-03-10T14:35:30.010Z,9.80
2023-03-10T14:40:25.865Z,7.60
2023-03-10T14:42:57.959Z,9.60
2023-03-10T14:48:04.405Z,9.40
2023-03-10T14:50:32.029Z,9.20
2023-03-10T14:55:26.623Z,9.10
2023-03-10T14:58:01.036Z,8.90
2023-03-10T15:02:56.047Z,8.70
2023-03-10T15:05:41.402Z,8.70
2023-03-10T15:08:14.877Z,8.70
2023-03-10T15:10:48.741Z,8.60
2023-03-10T15:13:19.856Z,8.70
2023-03-10T15:15:48.622Z,8.70
2023-03-10T15:18:23.211Z,8.70
2023-03-10T15:20:50.717Z,8.70
2023-03-10T15:25:47.644Z,8.60
2023-03-10T15:28:14.894Z,8.40
2023-03-10T15:33:10.699Z,8.30
2023-03-10T15:35:39.711Z,8.20
2023-03-10T15:40:38.746Z,8.00
2023-03-10T15:52:59.401Z,7.70
2023-03-10T15:55:28.639Z,7.60
2023-03-10T15:57:57.497Z,7.60
2023-03-10T16:00:27.538Z,7.40
2023-03-10T16:02:55.084Z,7.30
2023-03-10T16:07:50.596Z,7.00
2023-03-10T16:10:20.966Z,6.90
2023-03-10T16:15:18.345Z,6.70
2023-03-10T16:20:14.114Z,6.70
2023-03-10T16:22:43.192Z,6.70
2023-03-10T16:25:17.675Z,6.60
2023-03-10T16:27:47.480Z,6.60
2023-03-10T16:30:17.671Z,6.70
2023-03-10T16:32:50.174Z,6.70
2023-03-10T16:35:18.325Z,6.70
2023-03-10T16:40:13.503Z,6.60
2023-03-10T16:42:45.232Z,6.60
2023-03-10T16:45:12.583Z,6.60
2023-03-10T16:47:40.938Z,6.60
2023-03-10T16:52:42.243Z,6.60
2023-03-10T16:55:18.280Z,6.60
2023-03-10T16:57:45.862Z,6.60
2023-03-10T17:05:09.996Z,6.60
2023-03-10T17:07:46.492Z,6.60
2023-03-10T17:17:43.337Z,6.60
2023-03-10T17:20:11.274Z,6.60
2023-03-10T17:22:39.124Z,6.60
2023-03-10T17:27:34.604Z,6.50
2023-03-10T17:30:01.812Z,6.50
2023-03-10T17:32:28.979Z,6.50
2023-03-10T17:34:56.168Z,6.50
2023-03-10T17:42:18.136Z,6.40
2023-03-10T17:47:12.994Z,6.40
2023-03-10T17:49:41.018Z,6.40
2023-03-10T17:57:03.150Z,6.30
2023-03-10T17:59:31.838Z,5.90
2023-03-10T18:01:59.056Z,5.70
2023-03-10T18:21:49.733Z,5.20
2023-03-10T18:24:17.367Z,5.10
2023-03-10T18:29:14.384Z,5.30
2023-03-10T18:31:41.509Z,5.30
2023-03-10T18:36:37.048Z,5.20
2023-03-10T18:44:02.283Z,5.10
2023-03-10T18:46:29.424Z,5.20
2023-03-10T18:48:56.578Z,5.10
2023-03-10T18:51:28.570Z,5.20
2023-03-10T18:53:56.303Z,5.10
2023-03-10T18:58:52.997Z,5.10
2023-03-10T19:01:19.984Z,5.10
2023-03-10T19:06:14.641Z,5.10
2023-03-10T19:11:09.398Z,5.00
2023-03-10T19:16:10.080Z,5.10
2023-03-10T19:23:34.821Z,5.20
2023-03-10T19:28:31.187Z,5.30
2023-03-10T19:36:06.822Z,5.30
2023-03-10T19:38:39.573Z,6.80
2023-03-10T19:41:15.704Z,5.30
2023-03-10T19:43:44.791Z,5.30
2023-03-10T19:46:15.059Z,5.30
2023-03-10T19:48:44.051Z,5.40
2023-03-10T19:51:25.634Z,5.40
2023-03-10T19:53:55.563Z,5.40
2023-03-10T20:01:26.010Z,5.20
2023-03-10T20:04:02.728Z,5.20
2023-03-10T20:06:29.851Z,5.10
2023-03-10T20:11:24.566Z,5.10
2023-03-10T20:13:54.270Z,5.60
2023-03-10T20:16:23.788Z,5.10
2023-03-10T20:23:48.392Z,4.60
2023-03-10T20:31:19.546Z,4.20
2023-03-10T20:36:15.721Z,4.40
2023-03-10T20:38:45.168Z,4.30
2023-03-10T20:41:16.061Z,4.40
2023-03-10T20:43:43.981Z,4.40
2023-03-10T20:53:37.151Z,4.50
2023-03-10T20:56:11.716Z,4.50
2023-03-10T20:58:38.890Z,4.50
2023-03-10T21:03:33.589Z,4.40
2023-03-10T21:15:53.034Z,4.40
2023-03-10T21:18:20.142Z,4.40
2023-03-10T21:23:15.662Z,4.30
2023-03-10T21:28:10.180Z,4.00
2023-03-10T21:38:03.806Z,2.60
2023-03-10T21:43:00.238Z,2.50
2023-03-10T21:45:29.189Z,2.40
2023-03-10T21:47:56.164Z,2.40
2023-03-10T21:50:23.269Z,2.30
2023-03-10T21:52:50.515Z,2.30
2023-03-10T21:55:24.728Z,2.40
2023-03-10T22:00:23.031Z,2.30
2023-03-10T22:05:21.105Z,2.20
2023-03-10T22:10:17.782Z,2.10
2023-03-10T22:12:45.305Z,2.00
2023-03-10T22:15:23.742Z,2.00
2023-03-10T22:20:27.283Z,2.00
2023-03-10T22:27:54.693Z,2.00
2023-03-10T22:30:25.343Z,2.00
2023-03-10T22:35:21.449Z,2.10
2023-03-10T22:37:48.640Z,2.00
2023-03-10T22:40:22.196Z,2.10
2023-03-10T22:45:28.599Z,2.10
2023-03-10T22:48:01.191Z,2.10
2023-03-10T22:50:38.365Z,2.10
2023-03-10T22:53:13.856Z,2.10
2023-03-10T22:55:43.358Z,2.10
2023-03-10T22:58:11.173Z,2.00
2023-03-10T23:00:39.680Z,2.00
2023-03-10T23:03:08.878Z,2.00
2023-03-10T23:08:05.324Z,2.00
2023-03-10T23:10:35.690Z,2.00
2023-03-10T23:13:08.474Z,2.00
2023-03-10T23:15:38.030Z,1.90
2023-03-10T23:18:06.947Z,1.90
2023-03-10T23:20:41.874Z,2.00
2023-03-10T23:23:12.904Z,2.00
2023-03-10T23:25:46.909Z,2.00
2023-03-10T23:28:15.910Z,1.90
2023-03-10T23:30:46.484Z,1.90
2023-03-10T23:33:18.187Z,2.00
2023-03-10T23:35:55.162Z,1.90
2023-03-10T23:38:25.881Z,1.90
2023-03-10T23:48:19.740Z,1.90
2023-03-10T23:50:48.365Z,1.90
2023-03-10T23:53:20.486Z,1.90
2023-03-10T23:55:48.493Z,1.90
2023-03-10T23:58:19.417Z,1.90
